sensor_id;sensor_type;location;lat;lon;timestamp;P1;P2;P0
64138;PMS5003;50435;43.700;-79.318;2022-08-01T00:00:30;5;5;
64138;PMS5003;50435;43.700;-79.318;2022-08-01T00:02:57;10;8;
64138;PMS5003;50435;43.700;-79.318;2022-08-01T00:05:24;9;6;
64138;PMS5003;50435;43.700;-79.318;2022-08-01T00:07:52;6;6;
64138;PMS5003;50435;43.700;-79.318;2022-08-01T00:10:20;6;6;
64138;PMS5003;50435;43.700;-79.318;2022-08-01T00:12:47;7;7;
64138;PMS5003;50435;43.700;-79.318;2022-08-01T00:15:15;7;7;
64138;PMS5003;50435;43.700;-79.318;2022-08-01T00:17:43;8;8;
64138;PMS5003;50435;43.700;-79.318;2022-08-01T00:20:12;7;5;
64138;PMS5003;50435;43.700;-79.318;2022-08-01T00:22:40;9;7;
64138;PMS5003;50435;43.700;-79.318;2022-08-01T00:25:08;7;7;
64138;PMS5003;50435;43.700;-79.318;2022-08-01T00:27:35;6;6;
64138;PMS5003;50435;43.700;-79.318;2022-08-01T00:30:02;5;4;
64138;PMS5003;50435;43.700;-79.318;2022-08-01T00:32:31;8;8;
64138;PMS5003;50435;43.700;-79.318;2022-08-01T00:34:58;6;6;
64138;PMS5003;50435;43.700;-79.318;2022-08-01T00:37:25;6;6;
64138;PMS5003;50435;43.700;-79.318;2022-08-01T00:39:53;7;7;
64138;PMS5003;50435;43.700;-79.318;2022-08-01T00:42:21;5;5;
64138;PMS5003;50435;43.700;-79.318;2022-08-01T00:44:48;6;6;
64138;PMS5003;50435;43.700;-79.318;2022-08-01T00:47:16;8;8;
64138;PMS5003;50435;43.700;-79.318;2022-08-01T00:49:43;9;9;
64138;PMS5003;50435;43.700;-79.318;2022-08-01T00:52:11;6;5;
64138;PMS5003;50435;43.700;-79.318;2022-08-01T00:54:38;8;8;
64138;PMS5003;50435;43.700;-79.318;2022-08-01T00:57:06;5;5;
64138;PMS5003;50435;43.700;-79.318;2022-08-01T00:59:34;5;5;
64138;PMS5003;50435;43.700;-79.318;2022-08-01T01:02:02;6;6;
64138;PMS5003;50435;43.700;-79.318;2022-08-01T01:04:29;7;7;
64138;PMS5003;50435;43.700;-79.318;2022-08-01T01:06:57;7;6;
64138;PMS5003;50435;43.700;-79.318;2022-08-01T01:09:33;8;8;
64138;PMS5003;50435;43.700;-79.318;2022-08-01T01:12:10;6;6;
64138;PMS5003;50435;43.700;-79.318;2022-08-01T01:14:49;9;7;
64138;PMS5003;50435;43.700;-79.318;2022-08-01T01:17:24;5;5;
64138;PMS5003;50435;43.700;-79.318;2022-08-01T01:19:59;9;9;
64138;PMS5003;50435;43.700;-79.318;2022-08-01T01:22:36;7;7;
64138;PMS5003;50435;43.700;-79.318;2022-08-01T01:31:16;10;9;
64138;PMS5003;50435;43.700;-79.318;2022-08-01T01:33:48;8;8;
64138;PMS5003;50435;43.700;-79.318;2022-08-01T01:36:16;10;9;
64138;PMS5003;50435;43.700;-79.318;2022-08-01T01:38:48;5;5;
64138;PMS5003;50435;43.700;-79.318;2022-08-01T01:41:17;8;7;
64138;PMS5003;50435;43.700;-79.318;2022-08-01T01:43:46;7;7;
64138;PMS5003;50435;43.700;-79.318;2022-08-01T01:46:16;8;8;
64138;PMS5003;50435;43.700;-79.318;2022-08-01T01:48:47;7;7;
64138;PMS5003;50435;43.700;-79.318;2022-08-01T01:51:15;7;7;
64138;PMS5003;50435;43.700;-79.318;2022-08-01T01:53:44;10;8;
64138;PMS5003;50435;43.700;-79.318;2022-08-01T01:56:14;7;7;
64138;PMS5003;50435;43.700;-79.318;2022-08-01T01:58:45;9;6;
64138;PMS5003;50435;43.700;-79.318;2022-08-01T02:01:16;5;5;
64138;PMS5003;50435;43.700;-79.318;2022-08-01T02:03:44;7;7;
64138;PMS5003;50435;43.700;-79.318;2022-08-01T02:06:13;8;8;
64138;PMS5003;50435;43.700;-79.318;2022-08-01T02:08:42;8;8;
64138;PMS5003;50435;43.700;-79.318;2022-08-01T02:11:11;9;8;
64138;PMS5003;50435;43.700;-79.318;2022-08-01T02:13:39;7;7;
64138;PMS5003;50435;43.700;-79.318;2022-08-01T02:16:08;8;8;
64138;PMS5003;50435;43.700;-79.318;2022-08-01T02:18:36;12;11;
64138;PMS5003;50435;43.700;-79.318;2022-08-01T02:21:04;8;8;
64138;PMS5003;50435;43.700;-79.318;2022-08-01T02:23:36;8;8;
64138;PMS5003;50435;43.700;-79.318;2022-08-01T02:26:06;6;6;
64138;PMS5003;50435;43.700;-79.318;2022-08-01T02:28:38;6;6;
64138;PMS5003;50435;43.700;-79.318;2022-08-01T02:31:12;9;7;
64138;PMS5003;50435;43.700;-79.318;2022-08-01T02:33:45;8;8;
64138;PMS5003;50435;43.700;-79.318;2022-08-01T02:36:18;10;10;
64138;PMS5003;50435;43.700;-79.318;2022-08-01T02:38:46;8;8;
64138;PMS5003;50435;43.700;-79.318;2022-08-01T02:41:17;10;10;
64138;PMS5003;50435;43.700;-79.318;2022-08-01T02:43:48;12;11;
64138;PMS5003;50435;43.700;-79.318;2022-08-01T02:46:20;10;9;
64138;PMS5003;50435;43.700;-79.318;2022-08-01T02:48:51;10;10;
64138;PMS5003;50435;43.700;-79.318;2022-08-01T02:51:19;11;10;
64138;PMS5003;50435;43.700;-79.318;2022-08-01T02:53:50;9;9;
64138;PMS5003;50435;43.700;-79.318;2022-08-01T02:56:20;9;9;
64138;PMS5003;50435;43.700;-79.318;2022-08-01T02:58:49;13;11;
64138;PMS5003;50435;43.700;-79.318;2022-08-01T03:01:18;10;9;
64138;PMS5003;50435;43.700;-79.318;2022-08-01T03:03:47;11;11;
64138;PMS5003;50435;43.700;-79.318;2022-08-01T03:06:14;12;12;
64138;PMS5003;50435;43.700;-79.318;2022-08-01T03:08:44;10;9;
64138;PMS5003;50435;43.700;-79.318;2022-08-01T03:11:12;9;9;
64138;PMS5003;50435;43.700;-79.318;2022-08-01T03:13:41;10;10;
64138;PMS5003;50435;43.700;-79.318;2022-08-01T03:16:12;10;10;
64138;PMS5003;50435;43.700;-79.318;2022-08-01T03:18:42;11;11;
64138;PMS5003;50435;43.700;-79.318;2022-08-01T03:21:10;11;10;
64138;PMS5003;50435;43.700;-79.318;2022-08-01T03:23:40;10;10;
64138;PMS5003;50435;43.700;-79.318;2022-08-01T03:26:08;13;12;
64138;PMS5003;50435;43.700;-79.318;2022-08-01T03:28:36;9;9;
64138;PMS5003;50435;43.700;-79.318;2022-08-01T03:31:05;10;10;
64138;PMS5003;50435;43.700;-79.318;2022-08-01T03:33:32;11;11;
64138;PMS5003;50435;43.700;-79.318;2022-08-01T03:36:00;13;11;
64138;PMS5003;50435;43.700;-79.318;2022-08-01T03:38:31;9;9;
64138;PMS5003;50435;43.700;-79.318;2022-08-01T03:41:03;11;9;
64138;PMS5003;50435;43.700;-79.318;2022-08-01T03:43:37;9;9;
64138;PMS5003;50435;43.700;-79.318;2022-08-01T03:46:08;11;11;
64138;PMS5003;50435;43.700;-79.318;2022-08-01T03:48:40;8;8;
64138;PMS5003;50435;43.700;-79.318;2022-08-01T03:51:10;10;9;
64138;PMS5003;50435;43.700;-79.318;2022-08-01T03:53:39;10;9;
64138;PMS5003;50435;43.700;-79.318;2022-08-01T03:56:08;11;11;
64138;PMS5003;50435;43.700;-79.318;2022-08-01T03:58:38;12;12;
64138;PMS5003;50435;43.700;-79.318;2022-08-01T04:01:07;11;11;
64138;PMS5003;50435;43.700;-79.318;2022-08-01T04:03:35;7;7;
64138;PMS5003;50435;43.700;-79.318;2022-08-01T04:06:03;9;9;
64138;PMS5003;50435;43.700;-79.318;2022-08-01T04:08:35;11;10;
64138;PMS5003;50435;43.700;-79.318;2022-08-01T04:11:03;12;12;
64138;PMS5003;50435;43.700;-79.318;2022-08-01T04:13:30;11;11;
64138;PMS5003;50435;43.700;-79.318;2022-08-01T04:15:58;10;10;
64138;PMS5003;50435;43.700;-79.318;2022-08-01T04:18:26;11;11;
64138;PMS5003;50435;43.700;-79.318;2022-08-01T04:20:54;11;11;
64138;PMS5003;50435;43.700;-79.318;2022-08-01T04:23:22;11;10;
64138;PMS5003;50435;43.700;-79.318;2022-08-01T04:25:52;11;10;
64138;PMS5003;50435;43.700;-79.318;2022-08-01T04:28:21;10;10;
64138;PMS5003;50435;43.700;-79.318;2022-08-01T04:30:50;12;11;
64138;PMS5003;50435;43.700;-79.318;2022-08-01T04:33:21;10;10;
64138;PMS5003;50435;43.700;-79.318;2022-08-01T04:35:51;11;10;
64138;PMS5003;50435;43.700;-79.318;2022-08-01T04:38:19;9;9;
64138;PMS5003;50435;43.700;-79.318;2022-08-01T04:40:50;7;7;
64138;PMS5003;50435;43.700;-79.318;2022-08-01T04:43:18;9;9;
64138;PMS5003;50435;43.700;-79.318;2022-08-01T04:45:46;13;11;
64138;PMS5003;50435;43.700;-79.318;2022-08-01T04:48:15;10;9;
64138;PMS5003;50435;43.700;-79.318;2022-08-01T04:50:45;14;13;
64138;PMS5003;50435;43.700;-79.318;2022-08-01T04:53:13;10;10;
64138;PMS5003;50435;43.700;-79.318;2022-08-01T04:55:41;9;9;
64138;PMS5003;50435;43.700;-79.318;2022-08-01T04:58:09;11;10;
64138;PMS5003;50435;43.700;-79.318;2022-08-01T05:00:37;12;12;
64138;PMS5003;50435;43.700;-79.318;2022-08-01T05:03:04;9;9;
64138;PMS5003;50435;43.700;-79.318;2022-08-01T05:05:32;11;11;
64138;PMS5003;50435;43.700;-79.318;2022-08-01T05:07:59;10;10;
64138;PMS5003;50435;43.700;-79.318;2022-08-01T05:10:27;14;14;
64138;PMS5003;50435;43.700;-79.318;2022-08-01T05:12:55;12;12;
64138;PMS5003;50435;43.700;-79.318;2022-08-01T05:15:22;12;11;
64138;PMS5003;50435;43.700;-79.318;2022-08-01T05:17:50;11;11;
64138;PMS5003;50435;43.700;-79.318;2022-08-01T05:20:18;12;12;
64138;PMS5003;50435;43.700;-79.318;2022-08-01T05:22:45;10;10;
64138;PMS5003;50435;43.700;-79.318;2022-08-01T05:25:13;16;13;
64138;PMS5003;50435;43.700;-79.318;2022-08-01T05:27:41;32;30;
64138;PMS5003;50435;43.700;-79.318;2022-08-01T05:30:09;49;46;
64138;PMS5003;50435;43.700;-79.318;2022-08-01T05:32:36;65;59;
64138;PMS5003;50435;43.700;-79.318;2022-08-01T05:35:04;58;52;
64138;PMS5003;50435;43.700;-79.318;2022-08-01T05:37:32;54;52;
64138;PMS5003;50435;43.700;-79.318;2022-08-01T05:40:00;64;60;
64138;PMS5003;50435;43.700;-79.318;2022-08-01T05:42:28;67;66;
64138;PMS5003;50435;43.700;-79.318;2022-08-01T05:44:55;64;62;
64138;PMS5003;50435;43.700;-79.318;2022-08-01T05:47:23;67;64;
64138;PMS5003;50435;43.700;-79.318;2022-08-01T05:49:51;65;62;
64138;PMS5003;50435;43.700;-79.318;2022-08-01T05:52:18;66;63;
64138;PMS5003;50435;43.700;-79.318;2022-08-01T05:54:45;56;55;
64138;PMS5003;50435;43.700;-79.318;2022-08-01T05:57:12;56;56;
64138;PMS5003;50435;43.700;-79.318;2022-08-01T05:59:40;51;50;
64138;PMS5003;50435;43.700;-79.318;2022-08-01T06:02:07;49;44;
64138;PMS5003;50435;43.700;-79.318;2022-08-01T06:04:35;52;47;
64138;PMS5003;50435;43.700;-79.318;2022-08-01T06:07:02;41;41;
64138;PMS5003;50435;43.700;-79.318;2022-08-01T06:09:30;41;40;
64138;PMS5003;50435;43.700;-79.318;2022-08-01T06:11:58;42;41;
64138;PMS5003;50435;43.700;-79.318;2022-08-01T06:14:25;39;36;
64138;PMS5003;50435;43.700;-79.318;2022-08-01T06:16:52;37;37;
64138;PMS5003;50435;43.700;-79.318;2022-08-01T06:19:20;37;35;
64138;PMS5003;50435;43.700;-79.318;2022-08-01T06:21:48;35;34;
64138;PMS5003;50435;43.700;-79.318;2022-08-01T06:24:15;35;34;
64138;PMS5003;50435;43.700;-79.318;2022-08-01T06:26:43;32;30;
64138;PMS5003;50435;43.700;-79.318;2022-08-01T06:29:11;33;33;
64138;PMS5003;50435;43.700;-79.318;2022-08-01T06:31:38;27;27;
64138;PMS5003;50435;43.700;-79.318;2022-08-01T06:34:05;27;24;
64138;PMS5003;50435;43.700;-79.318;2022-08-01T06:36:33;31;28;
64138;PMS5003;50435;43.700;-79.318;2022-08-01T06:39:00;26;26;
64138;PMS5003;50435;43.700;-79.318;2022-08-01T06:41:28;23;22;
64138;PMS5003;50435;43.700;-79.318;2022-08-01T06:43:55;23;22;
64138;PMS5003;50435;43.700;-79.318;2022-08-01T06:46:22;21;21;
64138;PMS5003;50435;43.700;-79.318;2022-08-01T06:48:50;21;21;
64138;PMS5003;50435;43.700;-79.318;2022-08-01T06:51:17;25;23;
64138;PMS5003;50435;43.700;-79.318;2022-08-01T06:53:44;23;21;
64138;PMS5003;50435;43.700;-79.318;2022-08-01T06:56:11;21;21;
64138;PMS5003;50435;43.700;-79.318;2022-08-01T06:58:39;21;20;
64138;PMS5003;50435;43.700;-79.318;2022-08-01T07:01:07;18;18;
64138;PMS5003;50435;43.700;-79.318;2022-08-01T07:03:34;22;20;
64138;PMS5003;50435;43.700;-79.318;2022-08-01T07:06:02;18;18;
64138;PMS5003;50435;43.700;-79.318;2022-08-01T07:08:30;20;19;
64138;PMS5003;50435;43.700;-79.318;2022-08-01T07:10:57;21;20;
64138;PMS5003;50435;43.700;-79.318;2022-08-01T07:13:24;21;21;
64138;PMS5003;50435;43.700;-79.318;2022-08-01T07:15:51;21;17;
64138;PMS5003;50435;43.700;-79.318;2022-08-01T07:18:19;17;17;
64138;PMS5003;50435;43.700;-79.318;2022-08-01T07:20:47;18;16;
64138;PMS5003;50435;43.700;-79.318;2022-08-01T07:23:15;19;19;
64138;PMS5003;50435;43.700;-79.318;2022-08-01T07:25:42;17;17;
64138;PMS5003;50435;43.700;-79.318;2022-08-01T07:28:10;15;15;
64138;PMS5003;50435;43.700;-79.318;2022-08-01T07:30:37;17;15;
64138;PMS5003;50435;43.700;-79.318;2022-08-01T07:33:05;16;16;
64138;PMS5003;50435;43.700;-79.318;2022-08-01T07:35:33;17;17;
64138;PMS5003;50435;43.700;-79.318;2022-08-01T07:38:00;20;19;
64138;PMS5003;50435;43.700;-79.318;2022-08-01T07:40:27;19;18;
64138;PMS5003;50435;43.700;-79.318;2022-08-01T07:42:55;15;15;
64138;PMS5003;50435;43.700;-79.318;2022-08-01T07:45:22;19;19;
64138;PMS5003;50435;43.700;-79.318;2022-08-01T07:47:50;15;15;
64138;PMS5003;50435;43.700;-79.318;2022-08-01T07:50:17;16;16;
64138;PMS5003;50435;43.700;-79.318;2022-08-01T07:52:44;17;17;
64138;PMS5003;50435;43.700;-79.318;2022-08-01T07:55:12;17;17;
64138;PMS5003;50435;43.700;-79.318;2022-08-01T07:57:40;14;14;
64138;PMS5003;50435;43.700;-79.318;2022-08-01T08:00:07;15;13;
64138;PMS5003;50435;43.700;-79.318;2022-08-01T08:02:35;17;16;
64138;PMS5003;50435;43.700;-79.318;2022-08-01T08:05:03;14;13;
64138;PMS5003;50435;43.700;-79.318;2022-08-01T08:07:31;14;14;
64138;PMS5003;50435;43.700;-79.318;2022-08-01T08:09:58;15;15;
64138;PMS5003;50435;43.700;-79.318;2022-08-01T08:12:26;18;15;
64138;PMS5003;50435;43.700;-79.318;2022-08-01T08:14:53;18;16;
64138;PMS5003;50435;43.700;-79.318;2022-08-01T08:17:21;15;15;
64138;PMS5003;50435;43.700;-79.318;2022-08-01T08:19:49;20;19;
64138;PMS5003;50435;43.700;-79.318;2022-08-01T08:22:17;16;16;
64138;PMS5003;50435;43.700;-79.318;2022-08-01T08:24:44;15;15;
64138;PMS5003;50435;43.700;-79.318;2022-08-01T08:27:11;15;15;
64138;PMS5003;50435;43.700;-79.318;2022-08-01T08:29:39;15;15;
64138;PMS5003;50435;43.700;-79.318;2022-08-01T08:32:06;15;14;
64138;PMS5003;50435;43.700;-79.318;2022-08-01T08:34:34;13;12;
64138;PMS5003;50435;43.700;-79.318;2022-08-01T08:37:02;15;15;
64138;PMS5003;50435;43.700;-79.318;2022-08-01T08:39:30;21;20;
64138;PMS5003;50435;43.700;-79.318;2022-08-01T08:41:59;19;16;
64138;PMS5003;50435;43.700;-79.318;2022-08-01T08:44:26;17;17;
64138;PMS5003;50435;43.700;-79.318;2022-08-01T08:46:54;17;17;
64138;PMS5003;50435;43.700;-79.318;2022-08-01T08:49:24;14;14;
64138;PMS5003;50435;43.700;-79.318;2022-08-01T08:51:53;14;14;
64138;PMS5003;50435;43.700;-79.318;2022-08-01T08:54:26;17;17;
64138;PMS5003;50435;43.700;-79.318;2022-08-01T08:56:54;16;14;
64138;PMS5003;50435;43.700;-79.318;2022-08-01T08:59:24;15;15;
64138;PMS5003;50435;43.700;-79.318;2022-08-01T09:01:52;16;16;
64138;PMS5003;50435;43.700;-79.318;2022-08-01T09:04:20;13;13;
64138;PMS5003;50435;43.700;-79.318;2022-08-01T09:06:48;15;15;
64138;PMS5003;50435;43.700;-79.318;2022-08-01T09:09:16;16;16;
64138;PMS5003;50435;43.700;-79.318;2022-08-01T09:11:44;19;14;
64138;PMS5003;50435;43.700;-79.318;2022-08-01T09:14:13;17;17;
64138;PMS5003;50435;43.700;-79.318;2022-08-01T09:16:43;17;16;
64138;PMS5003;50435;43.700;-79.318;2022-08-01T09:19:12;18;18;
64138;PMS5003;50435;43.700;-79.318;2022-08-01T09:21:54;13;13;
64138;PMS5003;50435;43.700;-79.318;2022-08-01T09:24:24;21;18;
64138;PMS5003;50435;43.700;-79.318;2022-08-01T09:26:53;17;17;
64138;PMS5003;50435;43.700;-79.318;2022-08-01T09:29:22;20;17;
64138;PMS5003;50435;43.700;-79.318;2022-08-01T09:31:50;16;14;
64138;PMS5003;50435;43.700;-79.318;2022-08-01T09:34:23;19;18;
64138;PMS5003;50435;43.700;-79.318;2022-08-01T09:36:53;20;18;
64138;PMS5003;50435;43.700;-79.318;2022-08-01T09:39:22;17;15;
64138;PMS5003;50435;43.700;-79.318;2022-08-01T09:41:51;17;16;
64138;PMS5003;50435;43.700;-79.318;2022-08-01T09:44:19;16;16;
64138;PMS5003;50435;43.700;-79.318;2022-08-01T09:47:02;14;14;
64138;PMS5003;50435;43.700;-79.318;2022-08-01T09:49:31;15;15;
64138;PMS5003;50435;43.700;-79.318;2022-08-01T09:52:09;16;16;
64138;PMS5003;50435;43.700;-79.318;2022-08-01T09:54:38;18;18;
64138;PMS5003;50435;43.700;-79.318;2022-08-01T09:57:08;14;14;
64138;PMS5003;50435;43.700;-79.318;2022-08-01T09:59:37;16;16;
64138;PMS5003;50435;43.700;-79.318;2022-08-01T10:02:06;16;15;
64138;PMS5003;50435;43.700;-79.318;2022-08-01T10:04:35;16;16;
64138;PMS5003;50435;43.700;-79.318;2022-08-01T10:07:04;17;17;
64138;PMS5003;50435;43.700;-79.318;2022-08-01T10:09:33;20;20;
64138;PMS5003;50435;43.700;-79.318;2022-08-01T10:12:02;18;18;
64138;PMS5003;50435;43.700;-79.318;2022-08-01T10:14:30;17;17;
64138;PMS5003;50435;43.700;-79.318;2022-08-01T10:16:59;17;17;
64138;PMS5003;50435;43.700;-79.318;2022-08-01T10:19:28;19;17;
64138;PMS5003;50435;43.700;-79.318;2022-08-01T10:21:56;17;17;
64138;PMS5003;50435;43.700;-79.318;2022-08-01T10:24:24;19;18;
64138;PMS5003;50435;43.700;-79.318;2022-08-01T10:26:55;14;14;
64138;PMS5003;50435;43.700;-79.318;2022-08-01T10:29:25;16;16;
64138;PMS5003;50435;43.700;-79.318;2022-08-01T10:31:53;16;16;
64138;PMS5003;50435;43.700;-79.318;2022-08-01T10:34:21;16;15;
64138;PMS5003;50435;43.700;-79.318;2022-08-01T10:36:49;19;18;
64138;PMS5003;50435;43.700;-79.318;2022-08-01T10:39:17;18;16;
64138;PMS5003;50435;43.700;-79.318;2022-08-01T10:41:45;18;18;
64138;PMS5003;50435;43.700;-79.318;2022-08-01T10:44:13;16;16;
64138;PMS5003;50435;43.700;-79.318;2022-08-01T10:46:42;16;15;
64138;PMS5003;50435;43.700;-79.318;2022-08-01T10:49:16;16;16;
64138;PMS5003;50435;43.700;-79.318;2022-08-01T10:51:47;18;16;
64138;PMS5003;50435;43.700;-79.318;2022-08-01T10:54:15;16;16;
64138;PMS5003;50435;43.700;-79.318;2022-08-01T10:56:43;15;15;
64138;PMS5003;50435;43.700;-79.318;2022-08-01T10:59:14;17;15;
64138;PMS5003;50435;43.700;-79.318;2022-08-01T11:01:52;17;17;
64138;PMS5003;50435;43.700;-79.318;2022-08-01T11:04:26;17;17;
64138;PMS5003;50435;43.700;-79.318;2022-08-01T11:07:02;18;17;
64138;PMS5003;50435;43.700;-79.318;2022-08-01T11:09:38;16;16;
64138;PMS5003;50435;43.700;-79.318;2022-08-01T11:12:07;16;16;
64138;PMS5003;50435;43.700;-79.318;2022-08-01T11:15:41;17;17;
64138;PMS5003;50435;43.700;-79.318;2022-08-01T11:18:29;16;16;
64138;PMS5003;50435;43.700;-79.318;2022-08-01T11:20:59;19;19;
64138;PMS5003;50435;43.700;-79.318;2022-08-01T11:23:28;14;14;
64138;PMS5003;50435;43.700;-79.318;2022-08-01T11:26:06;15;15;
64138;PMS5003;50435;43.700;-79.318;2022-08-01T11:28:36;16;15;
64138;PMS5003;50435;43.700;-79.318;2022-08-01T11:31:35;17;17;
64138;PMS5003;50435;43.700;-79.318;2022-08-01T11:34:02;16;16;
64138;PMS5003;50435;43.700;-79.318;2022-08-01T11:36:30;14;14;
64138;PMS5003;50435;43.700;-79.318;2022-08-01T11:39:14;16;16;
64138;PMS5003;50435;43.700;-79.318;2022-08-01T11:41:44;19;19;
64138;PMS5003;50435;43.700;-79.318;2022-08-01T11:44:15;15;15;
64138;PMS5003;50435;43.700;-79.318;2022-08-01T11:46:47;16;16;
64138;PMS5003;50435;43.700;-79.318;2022-08-01T11:49:26;18;16;
64138;PMS5003;50435;43.700;-79.318;2022-08-01T11:51:57;14;14;
64138;PMS5003;50435;43.700;-79.318;2022-08-01T11:54:27;17;17;
64138;PMS5003;50435;43.700;-79.318;2022-08-01T11:56:56;19;16;
64138;PMS5003;50435;43.700;-79.318;2022-08-01T11:59:24;16;16;
64138;PMS5003;50435;43.700;-79.318;2022-08-01T12:01:53;18;18;
64138;PMS5003;50435;43.700;-79.318;2022-08-01T12:04:21;21;17;
64138;PMS5003;50435;43.700;-79.318;2022-08-01T12:06:48;16;16;
64138;PMS5003;50435;43.700;-79.318;2022-08-01T12:09:16;16;16;
64138;PMS5003;50435;43.700;-79.318;2022-08-01T12:11:46;15;15;
64138;PMS5003;50435;43.700;-79.318;2022-08-01T12:14:21;17;17;
64138;PMS5003;50435;43.700;-79.318;2022-08-01T12:16:51;16;15;
64138;PMS5003;50435;43.700;-79.318;2022-08-01T12:19:20;15;15;
64138;PMS5003;50435;43.700;-79.318;2022-08-01T12:22:22;14;12;
64138;PMS5003;50435;43.700;-79.318;2022-08-01T12:24:50;17;17;
64138;PMS5003;50435;43.700;-79.318;2022-08-01T12:27:23;18;17;
64138;PMS5003;50435;43.700;-79.318;2022-08-01T12:29:53;14;14;
64138;PMS5003;50435;43.700;-79.318;2022-08-01T12:32:23;17;17;
64138;PMS5003;50435;43.700;-79.318;2022-08-01T12:34:54;14;13;
64138;PMS5003;50435;43.700;-79.318;2022-08-01T12:37:22;14;14;
64138;PMS5003;50435;43.700;-79.318;2022-08-01T12:39:50;17;17;
64138;PMS5003;50435;43.700;-79.318;2022-08-01T12:42:17;17;17;
64138;PMS5003;50435;43.700;-79.318;2022-08-01T12:44:47;15;14;
64138;PMS5003;50435;43.700;-79.318;2022-08-01T12:47:18;17;16;
64138;PMS5003;50435;43.700;-79.318;2022-08-01T12:49:47;14;14;
64138;PMS5003;50435;43.700;-79.318;2022-08-01T12:52:15;18;17;
64138;PMS5003;50435;43.700;-79.318;2022-08-01T12:55:16;15;15;
64138;PMS5003;50435;43.700;-79.318;2022-08-01T12:57:45;15;14;
64138;PMS5003;50435;43.700;-79.318;2022-08-01T13:00:16;16;15;
64138;PMS5003;50435;43.700;-79.318;2022-08-01T13:02:46;18;16;
64138;PMS5003;50435;43.700;-79.318;2022-08-01T13:05:15;14;14;
64138;PMS5003;50435;43.700;-79.318;2022-08-01T13:07:44;16;16;
64138;PMS5003;50435;43.700;-79.318;2022-08-01T13:10:14;17;14;
64138;PMS5003;50435;43.700;-79.318;2022-08-01T13:12:52;14;14;
64138;PMS5003;50435;43.700;-79.318;2022-08-01T13:15:22;16;16;
64138;PMS5003;50435;43.700;-79.318;2022-08-01T13:17:52;17;15;
64138;PMS5003;50435;43.700;-79.318;2022-08-01T13:20:22;16;16;
64138;PMS5003;50435;43.700;-79.318;2022-08-01T13:22:52;17;16;
64138;PMS5003;50435;43.700;-79.318;2022-08-01T13:25:20;20;18;
64138;PMS5003;50435;43.700;-79.318;2022-08-01T13:27:48;16;16;
64138;PMS5003;50435;43.700;-79.318;2022-08-01T13:30:16;16;15;
64138;PMS5003;50435;43.700;-79.318;2022-08-01T13:32:56;17;17;
64138;PMS5003;50435;43.700;-79.318;2022-08-01T13:35:23;16;16;
64138;PMS5003;50435;43.700;-79.318;2022-08-01T13:37:51;18;16;
64138;PMS5003;50435;43.700;-79.318;2022-08-01T13:40:23;23;23;
64138;PMS5003;50435;43.700;-79.318;2022-08-01T13:42:51;25;24;
64138;PMS5003;50435;43.700;-79.318;2022-08-01T13:45:19;27;27;
64138;PMS5003;50435;43.700;-79.318;2022-08-01T13:47:47;27;25;
64138;PMS5003;50435;43.700;-79.318;2022-08-01T13:50:14;31;31;
64138;PMS5003;50435;43.700;-79.318;2022-08-01T13:52:42;28;26;
64138;PMS5003;50435;43.700;-79.318;2022-08-01T13:55:09;29;29;
64138;PMS5003;50435;43.700;-79.318;2022-08-01T13:57:37;27;26;
64138;PMS5003;50435;43.700;-79.318;2022-08-01T14:00:06;28;25;
64138;PMS5003;50435;43.700;-79.318;2022-08-01T14:02:37;26;25;
64138;PMS5003;50435;43.700;-79.318;2022-08-01T14:05:05;23;23;
64138;PMS5003;50435;43.700;-79.318;2022-08-01T14:07:33;30;28;
64138;PMS5003;50435;43.700;-79.318;2022-08-01T14:10:00;30;27;
64138;PMS5003;50435;43.700;-79.318;2022-08-01T14:12:28;30;27;
64138;PMS5003;50435;43.700;-79.318;2022-08-01T14:14:55;33;30;
64138;PMS5003;50435;43.700;-79.318;2022-08-01T14:17:23;23;23;
64138;PMS5003;50435;43.700;-79.318;2022-08-01T14:19:50;26;26;
64138;PMS5003;50435;43.700;-79.318;2022-08-01T14:22:18;26;26;
64138;PMS5003;50435;43.700;-79.318;2022-08-01T14:24:46;27;25;
64138;PMS5003;50435;43.700;-79.318;2022-08-01T14:27:13;28;28;
64138;PMS5003;50435;43.700;-79.318;2022-08-01T14:29:40;29;29;
64138;PMS5003;50435;43.700;-79.318;2022-08-01T14:32:08;31;31;
64138;PMS5003;50435;43.700;-79.318;2022-08-01T14:34:35;25;22;
64138;PMS5003;50435;43.700;-79.318;2022-08-01T14:37:03;29;27;
64138;PMS5003;50435;43.700;-79.318;2022-08-01T14:39:31;28;28;
64138;PMS5003;50435;43.700;-79.318;2022-08-01T14:41:58;32;31;
64138;PMS5003;50435;43.700;-79.318;2022-08-01T14:44:25;23;23;
64138;PMS5003;50435;43.700;-79.318;2022-08-01T14:46:53;25;25;
64138;PMS5003;50435;43.700;-79.318;2022-08-01T14:49:21;26;25;
64138;PMS5003;50435;43.700;-79.318;2022-08-01T14:51:48;26;26;
64138;PMS5003;50435;43.700;-79.318;2022-08-01T14:54:16;25;25;
64138;PMS5003;50435;43.700;-79.318;2022-08-01T14:56:43;26;25;
64138;PMS5003;50435;43.700;-79.318;2022-08-01T14:59:10;29;29;
64138;PMS5003;50435;43.700;-79.318;2022-08-01T15:01:38;26;25;
64138;PMS5003;50435;43.700;-79.318;2022-08-01T15:04:05;28;28;
64138;PMS5003;50435;43.700;-79.318;2022-08-01T15:06:33;25;25;
64138;PMS5003;50435;43.700;-79.318;2022-08-01T15:09:00;24;24;
64138;PMS5003;50435;43.700;-79.318;2022-08-01T15:11:27;28;26;
64138;PMS5003;50435;43.700;-79.318;2022-08-01T15:13:55;26;25;
64138;PMS5003;50435;43.700;-79.318;2022-08-01T15:16:22;31;30;
64138;PMS5003;50435;43.700;-79.318;2022-08-01T15:18:50;32;31;
64138;PMS5003;50435;43.700;-79.318;2022-08-01T15:21:17;30;29;
64138;PMS5003;50435;43.700;-79.318;2022-08-01T15:23:45;24;24;
64138;PMS5003;50435;43.700;-79.318;2022-08-01T15:26:12;22;22;
64138;PMS5003;50435;43.700;-79.318;2022-08-01T15:28:40;31;29;
64138;PMS5003;50435;43.700;-79.318;2022-08-01T15:31:08;26;26;
64138;PMS5003;50435;43.700;-79.318;2022-08-01T15:33:36;27;27;
64138;PMS5003;50435;43.700;-79.318;2022-08-01T15:36:03;30;29;
64138;PMS5003;50435;43.700;-79.318;2022-08-01T15:38:31;29;29;
64138;PMS5003;50435;43.700;-79.318;2022-08-01T15:40:59;29;28;
64138;PMS5003;50435;43.700;-79.318;2022-08-01T15:43:26;27;27;
64138;PMS5003;50435;43.700;-79.318;2022-08-01T15:45:54;25;25;
64138;PMS5003;50435;43.700;-79.318;2022-08-01T15:48:21;25;24;
64138;PMS5003;50435;43.700;-79.318;2022-08-01T15:50:49;27;25;
64138;PMS5003;50435;43.700;-79.318;2022-08-01T15:53:17;32;26;
64138;PMS5003;50435;43.700;-79.318;2022-08-01T15:55:44;24;24;
64138;PMS5003;50435;43.700;-79.318;2022-08-01T15:58:11;22;22;
64138;PMS5003;50435;43.700;-79.318;2022-08-01T16:00:38;24;23;
64138;PMS5003;50435;43.700;-79.318;2022-08-01T16:03:06;29;29;
64138;PMS5003;50435;43.700;-79.318;2022-08-01T16:05:33;29;29;
64138;PMS5003;50435;43.700;-79.318;2022-08-01T16:08:01;27;27;
64138;PMS5003;50435;43.700;-79.318;2022-08-01T16:10:29;21;21;